createdAt,value
2023-02-27T00:01:47.866Z,1.98
2023-02-27T00:04:14.677Z,2.20
2023-02-27T00:06:41.202Z,2.22
2023-02-27T00:09:08.308Z,2.05
2023-02-27T00:11:34.936Z,2.10
2023-02-27T00:14:01.414Z,2.15
2023-02-27T00:16:28.041Z,1.85
2023-02-27T00:18:54.902Z,2.15
2023-02-27T00:21:21.375Z,2.25
2023-02-27T00:23:47.999Z,2.03
2023-02-27T00:26:14.540Z,2.05
2023-02-27T00:28:40.978Z,2.22
2023-02-27T00:31:09.143Z,2.10
2023-02-27T00:33:35.709Z,2.17
2023-02-27T00:36:02.821Z,2.15
2023-02-27T00:38:29.657Z,1.92
2023-02-27T00:40:56.186Z,2.10
2023-02-27T00:43:22.677Z,2.28
2023-02-27T00:45:49.182Z,2.28
2023-02-27T00:48:16.207Z,2.30
2023-02-27T00:50:43.359Z,2.40
2023-02-27T00:53:10.050Z,2.42
2023-02-27T00:55:36.604Z,2.20
2023-02-27T00:58:03.122Z,2.40
2023-02-27T01:00:29.756Z,2.40
2023-02-27T01:02:56.318Z,2.70
2023-02-27T01:05:22.789Z,2.35
2023-02-27T01:07:49.322Z,2.55
2023-02-27T01:10:15.863Z,2.13
2023-02-27T01:12:42.428Z,2.47
2023-02-27T01:15:10.220Z,2.25
2023-02-27T01:17:36.690Z,2.35
2023-02-27T01:20:03.749Z,2.33
2023-02-27T01:22:30.156Z,2.35
2023-02-27T01:24:56.647Z,2.13
2023-02-27T01:27:23.068Z,2.63
2023-02-27T01:29:49.613Z,2.38
2023-02-27T01:32:16.320Z,2.25
2023-02-27T01:34:42.781Z,2.10
2023-02-27T01:37:09.374Z,2.38
2023-02-27T01:39:36.553Z,2.70
2023-02-27T01:42:03.929Z,2.53
2023-02-27T01:44:31.660Z,2.80
2023-02-27T01:46:58.261Z,2.42
2023-02-27T01:49:29.628Z,3.08
2023-02-27T01:52:05.868Z,2.60
2023-02-27T01:54:36.452Z,2.78
2023-02-27T01:57:06.645Z,2.53
2023-02-27T01:59:34.785Z,2.55
2023-02-27T02:02:04.984Z,3.17
2023-02-27T02:04:36.321Z,2.55
2023-02-27T02:07:07.599Z,2.30
2023-02-27T02:09:41.189Z,2.42
2023-02-27T02:12:08.204Z,2.55
2023-02-27T02:14:35.775Z,2.90
2023-02-27T02:17:22.516Z,2.65
2023-02-27T02:19:58.028Z,2.75
2023-02-27T02:22:39.671Z,2.28
2023-02-27T02:25:27.441Z,2.50
2023-02-27T02:28:03.069Z,2.55
2023-02-27T02:30:44.989Z,2.47
2023-02-27T02:33:33.385Z,2.80
2023-02-27T02:36:15.140Z,3.22
2023-02-27T02:38:50.847Z,2.75
2023-02-27T02:41:40.274Z,2.60
2023-02-27T02:44:31.533Z,2.83
2023-02-27T02:47:17.045Z,2.75
2023-02-27T02:50:01.904Z,2.80
2023-02-27T02:52:51.593Z,2.58
2023-02-27T02:55:33.358Z,2.42
2023-02-27T02:58:18.152Z,2.42
2023-02-27T03:01:10.912Z,2.75
2023-02-27T03:03:44.364Z,2.30
2023-02-27T03:06:19.823Z,2.70
2023-02-27T03:08:55.634Z,3.08
2023-02-27T03:11:29.671Z,2.90
2023-02-27T03:14:09.084Z,2.92
2023-02-27T03:16:45.849Z,2.92
2023-02-27T03:19:23.038Z,2.97
2023-02-27T03:21:59.159Z,3.00
2023-02-27T03:24:48.631Z,3.15
2023-02-27T03:27:17.530Z,2.90
2023-02-27T03:30:01.183Z,2.80
2023-02-27T03:32:36.633Z,2.58
2023-02-27T03:35:05.543Z,2.83
2023-02-27T03:37:53.884Z,2.63
2023-02-27T03:40:33.522Z,2.75
2023-02-27T03:43:09.020Z,3.30
2023-02-27T03:45:57.054Z,3.25
2023-02-27T03:48:23.760Z,3.22
2023-02-27T03:50:50.497Z,3.53
2023-02-27T03:53:42.966Z,3.20
2023-02-27T03:56:13.368Z,2.85
2023-02-27T03:58:40.262Z,3.08
2023-02-27T04:01:06.989Z,3.05
2023-02-27T04:03:39.452Z,3.25
2023-02-27T04:06:26.220Z,2.80
2023-02-27T04:09:16.965Z,2.42
2023-02-27T04:12:11.852Z,2.97
2023-02-27T04:14:50.496Z,2.75
2023-02-27T04:17:29.577Z,3.00
2023-02-27T04:20:08.351Z,2.72
2023-02-27T04:22:57.364Z,2.80
2023-02-27T04:25:42.696Z,3.05
2023-02-27T04:28:17.506Z,2.90
2023-02-27T04:31:05.627Z,2.80
2023-02-27T04:33:43.121Z,3.20
2023-02-27T04:36:28.261Z,2.95
2023-02-27T04:39:27.628Z,2.47
2023-02-27T04:41:55.962Z,3.00
2023-02-27T04:44:25.214Z,2.95
2023-02-27T04:46:53.813Z,3.63
2023-02-27T04:49:25.681Z,4.35
2023-02-27T04:51:58.475Z,4.35
2023-02-27T04:57:04.123Z,4.10
2023-02-27T04:59:36.172Z,4.10
2023-02-27T05:02:10.428Z,3.50
2023-02-27T05:04:40.367Z,3.40
2023-02-27T05:07:10.677Z,3.08
2023-02-27T05:09:51.195Z,3.38
2023-02-27T05:12:21.477Z,2.92
2023-02-27T05:15:17.222Z,3.28
2023-02-27T05:17:55.355Z,3.20
2023-02-27T05:20:25.046Z,2.90
2023-02-27T05:23:00.937Z,3.20
2023-02-27T05:25:46.060Z,3.20
2023-02-27T05:28:40.989Z,3.00
2023-02-27T05:31:28.238Z,2.80
2023-02-27T05:34:04.135Z,3.42
2023-02-27T05:36:41.745Z,3.25
2023-02-27T05:39:10.243Z,3.38
2023-02-27T05:41:46.768Z,3.28
2023-02-27T05:44:18.879Z,3.30
2023-02-27T05:46:53.547Z,3.55
2023-02-27T05:49:27.794Z,3.17
2023-02-27T05:51:57.362Z,3.58
2023-02-27T05:54:38.931Z,2.67
2023-02-27T05:57:10.839Z,2.65
2023-02-27T05:59:55.073Z,2.70
2023-02-27T06:02:21.745Z,2.85
2023-02-27T06:04:48.379Z,2.78
2023-02-27T06:07:15.459Z,2.92
2023-02-27T06:09:44.502Z,3.13
2023-02-27T06:12:11.027Z,2.78
2023-02-27T06:14:37.498Z,3.30
2023-02-27T06:17:05.046Z,3.30
2023-02-27T06:19:31.604Z,3.38
2023-02-27T06:21:58.164Z,3.63
2023-02-27T06:24:25.450Z,3.47
2023-02-27T06:26:51.916Z,3.42
2023-02-27T06:29:18.484Z,3.10
2023-02-27T06:31:45.036Z,2.83
2023-02-27T06:34:11.580Z,3.00
2023-02-27T06:36:38.101Z,3.33
2023-02-27T06:39:05.107Z,3.00
2023-02-27T06:41:31.574Z,2.65
2023-02-27T06:43:58.129Z,2.97
2023-02-27T06:46:25.181Z,2.55
2023-02-27T06:48:51.857Z,2.78
2023-02-27T06:51:28.945Z,2.63
2023-02-27T06:53:58.953Z,2.38
2023-02-27T06:56:42.292Z,3.22
2023-02-27T06:59:24.421Z,2.95
2023-02-27T07:02:13.959Z,3.17
2023-02-27T07:04:44.818Z,3.22
2023-02-27T07:07:35.108Z,3.05
2023-02-27T07:10:05.661Z,3.00
2023-02-27T07:12:32.182Z,3.50
2023-02-27T07:14:59.022Z,3.60
2023-02-27T07:17:25.588Z,2.60
2023-02-27T07:19:52.028Z,2.80
2023-02-27T07:22:18.540Z,3.45
2023-02-27T07:24:45.198Z,3.17
2023-02-27T07:27:11.677Z,3.83
2023-02-27T07:29:38.175Z,3.63
2023-02-27T07:32:04.705Z,3.58
2023-02-27T07:34:31.287Z,3.47
2023-02-27T07:36:57.773Z,3.88
2023-02-27T07:39:24.366Z,3.33
2023-02-27T07:41:50.817Z,3.45
2023-02-27T07:44:17.494Z,3.13
2023-02-27T07:46:44.732Z,3.50
2023-02-27T07:49:11.368Z,3.08
2023-02-27T07:51:37.882Z,2.80
2023-02-27T07:54:04.464Z,3.00
2023-02-27T07:56:31.517Z,2.85
2023-02-27T07:58:58.049Z,2.83
2023-02-27T08:01:24.556Z,2.90
2023-02-27T08:03:51.024Z,2.97
2023-02-27T08:06:17.658Z,3.20
2023-02-27T08:08:44.320Z,2.55
2023-02-27T08:11:11.294Z,2.50
2023-02-27T08:16:24.352Z,3.00
2023-02-27T08:18:50.931Z,2.85
2023-02-27T08:21:17.453Z,2.83
2023-02-27T08:23:43.875Z,2.45
2023-02-27T08:26:10.776Z,2.83
2023-02-27T08:28:38.446Z,2.80
2023-02-27T08:31:05.239Z,2.53
2023-02-27T08:33:31.734Z,2.78
2023-02-27T08:35:58.534Z,2.70
2023-02-27T08:38:26.436Z,2.95
2023-02-27T08:40:53.476Z,3.20
2023-02-27T08:43:21.179Z,3.08
2023-02-27T08:45:48.777Z,2.70
2023-02-27T08:48:17.245Z,2.92
2023-02-27T08:50:44.617Z,2.92
2023-02-27T08:53:11.762Z,3.05
2023-02-27T08:55:38.339Z,3.03
2023-02-27T08:58:04.851Z,2.35
2023-02-27T09:00:32.456Z,2.60
2023-02-27T09:03:00.010Z,2.80
2023-02-27T09:05:26.845Z,2.60
2023-02-27T09:07:53.552Z,2.55
2023-02-27T09:10:19.982Z,2.35
2023-02-27T09:12:46.448Z,2.40
2023-02-27T09:15:13.017Z,2.40
2023-02-27T09:17:39.570Z,2.78
2023-02-27T09:20:09.310Z,2.80
2023-02-27T09:22:35.934Z,2.60
2023-02-27T09:25:02.641Z,2.38
2023-02-27T09:27:29.286Z,3.22
2023-02-27T09:29:56.406Z,2.60
2023-02-27T09:32:24.163Z,2.60
2023-02-27T09:34:50.733Z,2.75
2023-02-27T09:37:18.126Z,2.83
2023-02-27T09:39:46.416Z,2.75
2023-02-27T09:42:22.373Z,2.90
2023-02-27T09:45:02.200Z,2.80
2023-02-27T09:47:44.490Z,2.92
2023-02-27T09:50:38.555Z,2.67
2023-02-27T09:53:09.272Z,2.70
2023-02-27T09:55:39.785Z,2.83
2023-02-27T09:58:31.211Z,2.70
2023-02-27T10:01:26.113Z,2.83
2023-02-27T10:04:30.448Z,2.60
2023-02-27T10:07:03.003Z,2.95
2023-02-27T10:09:32.282Z,2.08
2023-02-27T10:12:20.020Z,2.17
2023-02-27T10:15:33.324Z,2.50
2023-02-27T10:18:26.056Z,1.73
2023-02-27T10:20:58.944Z,2.03
2023-02-27T10:23:43.704Z,2.33
2023-02-27T10:26:33.100Z,2.25
2023-02-27T10:29:09.756Z,2.47
2023-02-27T10:31:36.744Z,2.30
2023-02-27T10:34:03.470Z,2.67
2023-02-27T10:36:34.416Z,2.30
2023-02-27T10:39:11.079Z,2.47
2023-02-27T10:41:39.870Z,2.10
2023-02-27T10:44:06.650Z,1.98
2023-02-27T10:46:38.497Z,1.73
2023-02-27T10:49:16.021Z,1.65
2023-02-27T10:51:44.453Z,1.80
2023-02-27T10:54:26.353Z,1.90
2023-02-27T10:56:55.946Z,1.50
2023-02-27T10:59:35.456Z,1.70
2023-02-27T11:02:06.786Z,1.90
2023-02-27T11:04:38.043Z,1.70
2023-02-27T11:07:09.032Z,1.40
2023-02-27T11:09:37.152Z,1.95
2023-02-27T11:12:13.134Z,1.80
2023-02-27T11:15:14.931Z,1.70
2023-02-27T11:17:42.053Z,2.47
2023-02-27T11:20:31.692Z,2.35
2023-02-27T11:23:16.052Z,2.40
2023-02-27T11:25:43.697Z,1.77
2023-02-27T11:28:29.589Z,1.90
2023-02-27T11:31:08.766Z,1.42
2023-02-27T11:33:39.281Z,1.58
2023-02-27T11:36:07.146Z,1.70
2023-02-27T11:38:34.795Z,1.23
2023-02-27T11:41:04.430Z,1.10
2023-02-27T11:43:36.299Z,1.02
2023-02-27T11:46:42.780Z,1.00
2023-02-27T11:49:08.191Z,1.02
2023-02-27T11:52:12.056Z,1.10
2023-02-27T11:54:59.865Z,1.08
2023-02-27T11:57:29.691Z,1.35
2023-02-27T12:00:17.998Z,1.73
2023-02-27T12:02:47.640Z,1.08
2023-02-27T12:05:26.132Z,1.17
2023-02-27T12:08:07.720Z,1.27
2023-02-27T12:11:12.337Z,1.38
2023-02-27T12:13:45.503Z,1.38
2023-02-27T12:16:34.778Z,2.25
2023-02-27T12:19:19.815Z,1.85
2023-02-27T12:21:54.158Z,1.88
2023-02-27T12:24:49.617Z,1.77
2023-02-27T12:27:34.148Z,1.65
2023-02-27T12:30:07.614Z,1.50
2023-02-27T12:32:42.941Z,1.40
2023-02-27T12:35:19.593Z,1.65
2023-02-27T12:37:46.266Z,1.63
2023-02-27T12:40:18.162Z,1.50
2023-02-27T12:42:58.475Z,1.42
2023-02-27T12:45:43.275Z,1.73
2023-02-27T12:48:40.647Z,1.60
2023-02-27T12:51:19.451Z,1.50
2023-02-27T12:54:00.998Z,1.70
2023-02-27T12:56:51.163Z,1.50
2023-02-27T12:59:48.270Z,1.70
2023-02-27T13:02:35.907Z,1.60
2023-02-27T13:05:29.933Z,1.63
2023-02-27T13:08:04.801Z,1.48
2023-02-27T13:10:33.539Z,1.65
2023-02-27T13:13:28.786Z,1.95
2023-02-27T13:16:00.676Z,1.38
2023-02-27T13:18:45.355Z,1.98
2023-02-27T13:21:39.720Z,1.48
2023-02-27T13:24:28.359Z,1.77
2023-02-27T13:27:00.470Z,1.65
2023-02-27T13:29:47.359Z,1.60
2023-02-27T13:32:44.668Z,1.80
2023-02-27T13:35:19.958Z,1.70
2023-02-27T13:38:02.287Z,1.30
2023-02-27T13:40:30.110Z,1.67
2023-02-27T13:43:00.397Z,1.27
2023-02-27T13:45:48.669Z,1.65
2023-02-27T13:48:46.134Z,1.55
2023-02-27T13:51:50.833Z,1.30
2023-02-27T13:54:22.054Z,1.58
2023-02-27T13:56:54.661Z,1.40
2023-02-27T13:59:23.695Z,1.70
2023-02-27T14:01:58.154Z,1.67
2023-02-27T14:04:28.466Z,1.40
2023-02-27T14:07:11.013Z,1.75
2023-02-27T14:09:41.364Z,1.35
2023-02-27T14:12:44.518Z,1.65
2023-02-27T14:15:17.405Z,1.27
2023-02-27T14:17:46.376Z,1.33
2023-02-27T14:20:12.963Z,1.30
2023-02-27T14:23:05.307Z,1.42
2023-02-27T14:25:39.389Z,1.58
2023-02-27T14:28:16.159Z,1.42
2023-02-27T14:30:51.036Z,1.20
2023-02-27T14:33:39.070Z,1.42
2023-02-27T14:36:19.901Z,1.90
2023-02-27T14:38:46.946Z,1.20
2023-02-27T14:41:35.502Z,1.42
2023-02-27T14:44:02.984Z,1.30
2023-02-27T14:46:39.843Z,1.83
2023-02-27T14:49:18.026Z,1.50
2023-02-27T14:51:44.667Z,1.35
2023-02-27T14:54:21.211Z,1.23
2023-02-27T14:57:02.281Z,1.10
2023-02-27T14:59:42.094Z,1.45
2023-02-27T15:02:34.505Z,1.25
2023-02-27T15:05:01.105Z,1.10
2023-02-27T15:07:31.153Z,1.33
2023-02-27T15:10:02.124Z,1.30
2023-02-27T15:15:00.945Z,1.10
2023-02-27T15:17:39.491Z,0.88
2023-02-27T15:20:30.153Z,1.38
2023-02-27T15:23:01.600Z,1.70
2023-02-27T15:25:28.149Z,1.10
2023-02-27T15:27:59.192Z,1.20
2023-02-27T15:30:25.829Z,1.10
2023-02-27T15:32:54.769Z,1.33
2023-02-27T15:35:24.647Z,1.20
2023-02-27T15:37:56.435Z,1.00
2023-02-27T15:40:28.101Z,1.10
2023-02-27T15:42:55.891Z,1.42
2023-02-27T15:45:27.632Z,1.40
2023-02-27T15:47:55.145Z,1.30
2023-02-27T15:50:31.660Z,1.23
2023-02-27T15:53:21.049Z,1.42
2023-02-27T15:56:05.984Z,1.38
2023-02-27T15:58:38.960Z,1.10
2023-02-27T16:03:42.467Z,1.30
2023-02-27T16:06:35.602Z,1.52
2023-02-27T16:09:06.441Z,1.23
2023-02-27T16:11:35.673Z,1.30
2023-02-27T16:14:02.993Z,1.48
2023-02-27T16:16:38.392Z,1.42
2023-02-27T16:19:15.365Z,1.17
2023-02-27T16:22:20.497Z,1.67
2023-02-27T16:24:48.056Z,1.80
2023-02-27T16:27:19.443Z,1.30
2023-02-27T16:29:47.165Z,1.90
2023-02-27T16:32:46.651Z,1.20
2023-02-27T16:35:22.645Z,1.55
2023-02-27T16:37:50.429Z,1.83
2023-02-27T16:40:23.012Z,1.65
2023-02-27T16:42:50.676Z,1.58
2023-02-27T16:45:19.489Z,1.70
2023-02-27T16:47:49.092Z,1.70
2023-02-27T16:50:22.168Z,1.90
2023-02-27T16:52:48.783Z,1.63
2023-02-27T16:55:15.319Z,1.60
2023-02-27T16:57:41.840Z,1.75
2023-02-27T17:00:13.251Z,1.70
2023-02-27T17:02:39.871Z,1.63
2023-02-27T17:05:06.893Z,1.70
2023-02-27T17:07:33.498Z,1.70
2023-02-27T17:10:02.908Z,1.50
2023-02-27T17:12:29.423Z,1.50
2023-02-27T17:14:56.361Z,1.80
2023-02-27T17:17:22.852Z,1.83
2023-02-27T17:19:49.352Z,1.70
2023-02-27T17:22:15.898Z,1.55
2023-02-27T17:24:42.482Z,2.10
2023-02-27T17:27:09.396Z,1.70
2023-02-27T17:29:38.362Z,1.95
2023-02-27T17:32:05.429Z,1.63
2023-02-27T17:34:31.981Z,1.58
2023-02-27T17:36:58.519Z,1.50
2023-02-27T17:39:25.017Z,1.83
2023-02-27T17:41:53.073Z,2.22
2023-02-27T17:44:19.690Z,1.80
2023-02-27T17:47:05.767Z,1.80
2023-02-27T17:49:32.194Z,2.08
2023-02-27T17:52:00.487Z,1.90
2023-02-27T17:54:27.147Z,1.60
2023-02-27T17:56:53.638Z,2.00
2023-02-27T17:59:20.278Z,1.77
2023-02-27T18:01:46.823Z,2.30
2023-02-27T18:04:13.851Z,2.15
2023-02-27T18:06:40.464Z,1.77
2023-02-27T18:09:06.970Z,2.03
2023-02-27T18:11:33.598Z,2.15
2023-02-27T18:14:00.441Z,2.40
2023-02-27T18:16:27.283Z,1.95
2023-02-27T18:18:54.003Z,2.25
2023-02-27T18:21:23.152Z,2.28
2023-02-27T18:23:51.657Z,2.20
2023-02-27T18:26:30.821Z,2.65
2023-02-27T18:29:03.793Z,2.35
2023-02-27T18:31:33.548Z,1.90
2023-02-27T18:34:00.992Z,2.58
2023-02-27T18:36:29.306Z,2.88
2023-02-27T18:38:56.270Z,2.60
2023-02-27T18:41:23.009Z,2.30
2023-02-27T18:43:49.826Z,2.05
2023-02-27T18:46:16.492Z,2.35
2023-02-27T18:48:44.503Z,2.42
2023-02-27T18:51:14.608Z,2.05
2023-02-27T18:53:44.280Z,2.40
2023-02-27T18:56:12.566Z,2.13
2023-02-27T18:58:39.357Z,2.45
2023-02-27T19:01:19.049Z,2.22
2023-02-27T19:03:46.140Z,2.33
2023-02-27T19:06:13.493Z,2.70
2023-02-27T19:08:40.069Z,2.78
2023-02-27T19:11:06.600Z,3.08
2023-02-27T19:13:33.135Z,2.97
2023-02-27T19:16:04.707Z,3.25
2023-02-27T19:18:31.634Z,3.10
2023-02-27T19:21:03.140Z,3.08
2023-02-27T19:23:30.377Z,2.83
2023-02-27T19:26:01.031Z,2.75
2023-02-27T19:28:27.960Z,2.83
2023-02-27T19:30:54.661Z,2.88
2023-02-27T19:33:21.466Z,2.38
2023-02-27T19:35:48.097Z,3.25
2023-02-27T19:38:14.735Z,3.20
2023-02-27T19:40:41.233Z,3.00
2023-02-27T19:43:07.898Z,3.05
2023-02-27T19:45:34.566Z,2.60
2023-02-27T19:48:01.586Z,2.90
2023-02-27T19:50:30.185Z,2.70
2023-02-27T19:52:56.769Z,3.05
2023-02-27T19:55:23.205Z,2.55
2023-02-27T19:57:49.788Z,2.83
2023-02-27T20:00:17.127Z,2.53
2023-02-27T20:02:43.694Z,2.42
2023-02-27T20:05:12.028Z,2.85
2023-02-27T20:07:39.162Z,2.45
2023-02-27T20:10:05.938Z,3.25
2023-02-27T20:12:32.691Z,2.65
2023-02-27T20:14:59.190Z,3.70
2023-02-27T20:17:25.711Z,3.75
2023-02-27T20:19:52.237Z,4.00
2023-02-27T20:22:18.673Z,4.30
2023-02-27T20:24:45.481Z,4.90
2023-02-27T20:27:12.216Z,4.40
2023-02-27T20:29:38.822Z,4.03
2023-02-27T20:32:05.391Z,4.00
2023-02-27T20:34:32.046Z,3.45
2023-02-27T20:37:00.255Z,2.97
2023-02-27T20:39:28.022Z,3.10
2023-02-27T20:41:54.541Z,2.83
2023-02-27T20:44:21.003Z,2.53
2023-02-27T20:46:49.265Z,2.72
2023-02-27T20:49:16.636Z,2.67
2023-02-27T20:51:44.027Z,2.65
2023-02-27T20:54:15.279Z,2.60
2023-02-27T20:56:43.089Z,2.78
2023-02-27T20:59:12.912Z,2.83
2023-02-27T21:01:39.654Z,3.00
2023-02-27T21:04:06.742Z,2.97
2023-02-27T21:06:34.896Z,2.70
2023-02-27T21:09:04.484Z,2.90
2023-02-27T21:11:33.297Z,3.05
2023-02-27T21:14:04.528Z,3.00
2023-02-27T21:16:31.429Z,2.80
2023-02-27T21:18:58.109Z,2.83
2023-02-27T21:21:28.181Z,2.92
2023-02-27T21:23:55.354Z,3.05
2023-02-27T21:26:30.797Z,3.20
2023-02-27T21:29:02.612Z,3.00
2023-02-27T21:31:31.708Z,3.97
2023-02-27T21:34:00.562Z,3.42
2023-02-27T21:36:30.240Z,3.88
2023-02-27T21:39:02.536Z,3.42
2023-02-27T21:41:29.940Z,3.53
2023-02-27T21:44:01.251Z,3.13
2023-02-27T21:46:28.119Z,3.47
2023-02-27T21:48:54.804Z,3.20
2023-02-27T21:51:36.730Z,2.92
2023-02-27T21:54:05.684Z,3.47
2023-02-27T21:56:34.579Z,3.03
2023-02-27T21:59:01.850Z,3.60
2023-02-27T22:01:29.791Z,3.40
2023-02-27T22:03:57.237Z,3.38
2023-02-27T22:06:25.725Z,4.13
2023-02-27T22:08:54.795Z,3.33
2023-02-27T22:11:21.709Z,3.45
2023-02-27T22:13:48.409Z,3.40
2023-02-27T22:16:15.094Z,3.40
2023-02-27T22:18:41.866Z,3.10
2023-02-27T22:21:11.467Z,3.30
2023-02-27T22:23:38.553Z,3.00
2023-02-27T22:26:08.631Z,3.67
2023-02-27T22:28:37.040Z,3.28
2023-02-27T22:31:28.768Z,3.20
2023-02-27T22:33:59.031Z,3.28
2023-02-27T22:36:29.123Z,3.53
2023-02-27T22:38:56.341Z,3.20
2023-02-27T22:41:29.154Z,3.40
2023-02-27T22:46:34.699Z,3.03
2023-02-27T22:49:08.134Z,3.72
2023-02-27T22:51:35.198Z,3.47
2023-02-27T22:54:03.486Z,3.25
2023-02-27T22:56:31.012Z,3.40
2023-02-27T22:58:57.623Z,3.40
2023-02-27T23:01:33.236Z,2.67
2023-02-27T23:04:03.397Z,3.30
2023-02-27T23:06:33.012Z,2.97
2023-02-27T23:09:00.495Z,2.83
2023-02-27T23:11:27.812Z,3.28
2023-02-27T23:13:54.689Z,3.35
2023-02-27T23:16:21.356Z,2.95
2023-02-27T23:18:50.418Z,2.92
2023-02-27T23:21:18.969Z,3.05
2023-02-27T23:23:45.848Z,3.17
2023-02-27T23:26:12.723Z,2.70
2023-02-27T23:31:14.745Z,3.10
2023-02-27T23:33:41.329Z,2.90
2023-02-27T23:36:07.929Z,2.95
2023-02-27T23:38:34.383Z,2.83
2023-02-27T23:41:08.601Z,2.50
2023-02-27T23:43:35.882Z,3.38
2023-02-27T23:46:10.066Z,2.88
2023-02-27T23:48:37.451Z,2.50
2023-02-27T23:51:05.762Z,2.72
2023-02-27T23:53:33.371Z,2.30
2023-02-27T23:55:59.986Z,2.80
2023-02-27T23:58:26.596Z,2.75
